createdAt,value
2019-04-26T00:00:58.043Z,308.70
2019-04-26T00:01:58.034Z,309.94
2019-04-26T00:02:58.031Z,309.81
2019-04-26T00:03:58.016Z,310.38
2019-04-26T00:04:58.006Z,309.91
2019-04-26T00:05:57.974Z,309.96
2019-04-26T00:06:58.007Z,309.73
2019-04-26T00:07:58.030Z,309.22
2019-04-26T00:08:57.953Z,309.93
2019-04-26T00:09:57.953Z,310.58
2019-04-26T00:10:57.929Z,310.28
2019-04-26T00:11:57.919Z,309.42
2019-04-26T00:12:57.900Z,309.34
2019-04-26T00:13:57.909Z,309.25
2019-04-26T00:14:57.912Z,310.00
2019-04-26T00:15:57.879Z,310.39
2019-04-26T00:16:57.873Z,308.96
2019-04-26T00:17:57.866Z,311.83
2019-04-26T00:18:57.854Z,310.86
2019-04-26T00:19:57.844Z,309.76
2019-04-26T00:20:57.813Z,310.37
2019-04-26T00:21:57.800Z,310.37
2019-04-26T00:22:57.788Z,310.37
2019-04-26T00:23:57.779Z,310.15
2019-04-26T00:24:57.806Z,310.02
2019-04-26T00:25:57.763Z,309.85
2019-04-26T00:26:57.752Z,309.63
2019-04-26T00:27:57.732Z,310.36
2019-04-26T00:28:57.726Z,310.13
2019-04-26T00:29:57.715Z,310.41
2019-04-26T00:30:57.721Z,311.60
2019-04-26T00:31:57.688Z,310.25
2019-04-26T00:32:57.683Z,309.95
2019-04-26T00:33:57.669Z,309.90
2019-04-26T00:34:57.661Z,310.40
2019-04-26T00:35:57.663Z,311.03
2019-04-26T00:36:57.636Z,310.65
2019-04-26T00:37:57.633Z,309.68
2019-04-26T00:38:57.607Z,310.29
2019-04-26T00:39:57.606Z,310.71
2019-04-26T00:40:57.620Z,309.81
2019-04-26T00:41:57.581Z,310.84
2019-04-26T00:42:57.722Z,310.46
2019-04-26T00:43:57.558Z,310.90
2019-04-26T00:44:57.549Z,311.02
2019-04-26T00:45:57.555Z,310.75
2019-04-26T00:46:57.534Z,310.34
2019-04-26T00:47:57.518Z,310.91
2019-04-26T00:48:57.508Z,310.72
2019-04-26T00:49:57.489Z,310.74
2019-04-26T00:50:57.514Z,311.04
2019-04-26T00:51:57.462Z,310.52
2019-04-26T00:52:57.446Z,309.97
2019-04-26T00:53:57.445Z,310.94
2019-04-26T00:54:57.451Z,310.04
2019-04-26T00:55:57.437Z,311.58
2019-04-26T00:56:57.408Z,310.74
2019-04-26T00:57:57.400Z,310.61
2019-04-26T00:58:57.385Z,310.50
2019-04-26T00:59:57.380Z,310.77
2019-04-26T01:00:57.396Z,310.67
2019-04-26T01:01:57.361Z,311.19
2019-04-26T01:02:57.378Z,310.17
2019-04-26T01:03:57.343Z,310.76
2019-04-26T01:04:57.312Z,310.56
2019-04-26T01:06:00.169Z,311.05
2019-04-26T01:06:57.298Z,310.40
2019-04-26T01:07:57.291Z,310.00
2019-04-26T01:08:57.275Z,310.81
2019-04-26T01:09:57.270Z,310.28
2019-04-26T01:10:57.280Z,310.89
2019-04-26T01:11:57.246Z,310.67
2019-04-26T01:12:57.232Z,311.12
2019-04-26T01:13:57.221Z,310.05
2019-04-26T01:14:57.209Z,310.66
2019-04-26T01:15:57.216Z,311.35
2019-04-26T01:16:57.194Z,310.88
2019-04-26T01:17:57.177Z,310.18
2019-04-26T01:18:57.162Z,311.10
2019-04-26T01:19:57.159Z,311.17
2019-04-26T01:20:57.159Z,309.66
2019-04-26T01:21:57.128Z,310.32
2019-04-26T01:22:57.112Z,310.76
2019-04-26T01:23:57.112Z,309.88
2019-04-26T01:24:57.099Z,310.40
2019-04-26T01:25:57.102Z,311.65
2019-04-26T01:26:57.131Z,310.91
2019-04-26T01:27:57.065Z,310.31
2019-04-26T01:28:57.063Z,311.15
2019-04-26T01:29:57.044Z,311.04
2019-04-26T01:30:57.056Z,310.36
2019-04-26T01:31:57.037Z,310.89
2019-04-26T01:32:57.007Z,311.29
2019-04-26T01:33:56.990Z,312.50
2019-04-26T01:34:56.992Z,310.72
2019-04-26T01:35:57.008Z,311.14
2019-04-26T01:36:56.963Z,310.87
2019-04-26T01:37:56.950Z,311.37
2019-04-26T01:38:56.955Z,310.75
2019-04-26T01:39:56.931Z,310.48
2019-04-26T01:40:56.922Z,310.38
2019-04-26T01:41:56.939Z,311.17
2019-04-26T01:42:56.896Z,310.46
2019-04-26T01:43:56.878Z,311.16
2019-04-26T01:44:56.872Z,310.28
2019-04-26T01:45:56.864Z,310.75
2019-04-26T01:46:56.874Z,310.05
2019-04-26T01:47:56.839Z,312.07
2019-04-26T01:48:56.830Z,311.09
2019-04-26T01:49:56.816Z,310.98
2019-04-26T01:50:56.796Z,310.91
2019-04-26T01:51:56.802Z,311.29
2019-04-26T01:52:56.774Z,311.30
2019-04-26T01:53:56.774Z,312.05
2019-04-26T01:54:56.759Z,310.58
2019-04-26T01:55:56.752Z,311.10
2019-04-26T01:56:56.747Z,311.07
2019-04-26T01:57:56.720Z,310.70
2019-04-26T01:58:56.714Z,311.53
2019-04-26T01:59:56.710Z,311.15
2019-04-26T02:00:56.688Z,312.16
2019-04-26T02:01:56.704Z,312.47
2019-04-26T02:02:56.678Z,310.88
2019-04-26T02:03:56.692Z,311.57
2019-04-26T02:04:56.656Z,311.03
2019-04-26T02:05:56.641Z,312.58
2019-04-26T02:06:56.637Z,312.20
2019-04-26T02:07:56.617Z,311.63
2019-04-26T02:08:56.600Z,311.04
2019-04-26T02:09:56.595Z,311.50
2019-04-26T02:10:56.577Z,311.04
2019-04-26T02:11:56.581Z,311.27
2019-04-26T02:12:56.551Z,312.07
2019-04-26T02:13:56.553Z,312.88
2019-04-26T02:14:56.525Z,311.51
2019-04-26T02:15:56.523Z,310.80
2019-04-26T02:16:56.531Z,311.65
2019-04-26T02:17:56.497Z,312.85
2019-04-26T02:18:56.483Z,311.34
2019-04-26T02:19:56.493Z,312.42
2019-04-26T02:20:56.471Z,313.12
2019-04-26T02:21:56.483Z,311.08
2019-04-26T02:22:56.449Z,312.69
2019-04-26T02:23:56.430Z,311.72
2019-04-26T02:24:56.427Z,310.75
2019-04-26T02:25:56.425Z,312.90
2019-04-26T02:26:56.411Z,311.71
2019-04-26T02:27:56.379Z,312.56
2019-04-26T02:28:56.382Z,311.03
2019-04-26T02:29:56.360Z,310.85
2019-04-26T02:30:56.369Z,312.99
2019-04-26T02:31:56.351Z,313.78
2019-04-26T02:32:56.343Z,311.59
2019-04-26T02:33:56.315Z,311.10
2019-04-26T02:34:56.298Z,311.19
2019-04-26T02:35:56.382Z,312.13
2019-04-26T02:36:58.804Z,310.96
2019-04-26T02:37:56.271Z,313.16
2019-04-26T02:38:56.257Z,312.26
2019-04-26T02:39:56.268Z,306.92
2019-04-26T02:40:56.231Z,310.97
2019-04-26T02:41:56.267Z,306.05
2019-04-26T02:42:56.207Z,312.75
2019-04-26T02:43:56.225Z,306.15
2019-04-26T02:44:56.189Z,311.47
2019-04-26T02:45:56.178Z,312.68
2019-04-26T02:46:56.191Z,312.35
2019-04-26T02:47:56.177Z,307.05
2019-04-26T02:48:56.157Z,312.77
2019-04-26T02:49:56.134Z,313.54
2019-04-26T02:50:56.126Z,311.70
2019-04-26T02:51:56.118Z,312.00
2019-04-26T02:52:56.115Z,311.97
2019-04-26T02:53:56.083Z,312.38
2019-04-26T02:54:56.074Z,312.74
2019-04-26T02:55:56.068Z,316.12
2019-04-26T02:56:56.067Z,312.25
2019-04-26T02:57:56.068Z,312.35
2019-04-26T02:58:56.036Z,306.39
2019-04-26T02:59:56.024Z,306.47
2019-04-26T03:00:56.006Z,307.75
2019-04-26T03:01:56.013Z,307.23
2019-04-26T03:02:56.010Z,308.70
2019-04-26T03:03:55.976Z,306.87
2019-04-26T03:04:55.966Z,313.32
2019-04-26T03:05:55.952Z,306.78
2019-04-26T03:07:03.707Z,308.33
2019-04-26T03:07:56.942Z,307.99
2019-04-26T03:08:55.922Z,306.65
2019-04-26T03:09:55.914Z,306.77
2019-04-26T03:10:55.916Z,315.19
2019-04-26T03:11:55.884Z,308.78
2019-04-26T03:12:55.894Z,315.00
2019-04-26T03:13:55.860Z,310.69
2019-04-26T03:15:12.206Z,308.10
2019-04-26T03:15:56.851Z,312.80
2019-04-26T03:16:55.832Z,313.03
2019-04-26T03:17:55.834Z,307.16
2019-04-26T03:18:55.829Z,314.45
2019-04-26T03:19:55.799Z,313.70
2019-04-26T03:20:55.815Z,312.61
2019-04-26T03:21:55.797Z,313.87
2019-04-26T03:22:55.785Z,314.68
2019-04-26T03:23:58.465Z,307.83
2019-04-26T03:24:56.250Z,312.72
2019-04-26T03:25:55.733Z,314.20
2019-04-26T03:26:55.723Z,314.55
2019-04-26T03:27:55.718Z,312.90
2019-04-26T03:28:55.693Z,313.09
2019-04-26T03:30:17.402Z,307.12
2019-04-26T03:30:56.680Z,313.42
2019-04-26T03:31:55.793Z,307.58
2019-04-26T03:32:55.883Z,307.88
2019-04-26T03:33:55.792Z,307.87
2019-04-26T03:34:55.927Z,314.55
2019-04-26T03:35:58.033Z,309.55
2019-04-26T03:36:55.607Z,307.17
2019-04-26T03:37:55.613Z,308.55
2019-04-26T03:38:55.577Z,311.05
2019-04-26T03:39:56.511Z,315.16
2019-04-26T03:40:55.562Z,307.81
2019-04-26T03:41:55.556Z,308.23
2019-04-26T03:42:55.549Z,307.96
2019-04-26T03:43:55.522Z,308.82
2019-04-26T03:44:55.516Z,314.56
2019-04-26T03:45:55.501Z,308.63
2019-04-26T03:46:55.497Z,312.90
2019-04-26T03:47:55.530Z,306.15
2019-04-26T03:48:55.478Z,306.85
2019-04-26T03:49:55.465Z,307.50
2019-04-26T03:50:55.446Z,316.52
2019-04-26T03:51:55.437Z,311.12
2019-04-26T03:52:55.435Z,314.07
2019-04-26T03:53:55.441Z,308.39
2019-04-26T03:54:55.399Z,313.10
2019-04-26T03:55:55.393Z,314.10
2019-04-26T03:56:55.375Z,315.49
2019-04-26T03:57:55.390Z,314.04
2019-04-26T03:58:55.383Z,314.09
2019-04-26T03:59:55.341Z,307.00
2019-04-26T04:00:55.347Z,307.39
2019-04-26T04:01:55.313Z,307.10
2019-04-26T04:02:55.312Z,315.47
2019-04-26T04:03:55.308Z,309.84
2019-04-26T04:04:55.304Z,313.70
2019-04-26T04:05:55.342Z,322.97
2019-04-26T04:07:03.792Z,318.80
2019-04-26T04:07:56.252Z,311.82
2019-04-26T04:08:55.257Z,315.37
2019-04-26T04:09:55.240Z,309.02
2019-04-26T04:10:55.229Z,307.64
2019-04-26T04:12:10.264Z,308.31
2019-04-26T04:12:56.259Z,309.49
2019-04-26T04:13:55.289Z,315.22
2019-04-26T04:14:55.206Z,312.61
2019-04-26T04:15:55.169Z,314.23
2019-04-26T04:16:55.164Z,314.15
2019-04-26T04:17:55.143Z,314.00
2019-04-26T04:18:55.150Z,313.66
2019-04-26T04:19:55.122Z,307.30
2019-04-26T04:20:55.132Z,312.73
2019-04-26T04:21:55.103Z,307.65
2019-04-26T04:22:55.116Z,312.46
2019-04-26T04:23:55.106Z,314.03
2019-04-26T04:24:55.077Z,313.66
2019-04-26T04:25:55.054Z,306.99
2019-04-26T04:26:55.042Z,315.38
2019-04-26T04:27:55.048Z,313.79
2019-04-26T04:31:14.249Z,290.95
2019-04-26T04:32:14.220Z,313.36
2019-04-26T04:33:14.224Z,313.73
2019-04-26T04:34:14.234Z,314.42
2019-04-26T04:35:15.116Z,312.38
2019-04-26T04:36:14.172Z,315.16
2019-04-26T04:37:14.171Z,313.58
2019-04-26T04:38:14.171Z,314.96
2019-04-26T04:39:14.141Z,314.07
2019-04-26T04:40:14.130Z,315.15
2019-04-26T04:41:14.128Z,312.74
2019-04-26T04:42:14.110Z,314.35
2019-04-26T04:43:14.214Z,315.58
2019-04-26T04:44:14.088Z,314.58
2019-04-26T04:45:14.087Z,315.08
2019-04-26T04:46:14.168Z,313.75
2019-04-26T04:47:23.546Z,313.97
2019-04-26T04:48:15.074Z,313.51
2019-04-26T04:49:14.033Z,315.57
2019-04-26T04:50:14.021Z,314.18
2019-04-26T04:51:14.046Z,313.82
2019-04-26T04:52:13.998Z,313.62
2019-04-26T04:53:13.997Z,314.68
2019-04-26T04:54:14.001Z,315.29
2019-04-26T04:55:13.966Z,314.24
2019-04-26T04:56:13.952Z,312.97
2019-04-26T04:57:13.939Z,315.02
2019-04-26T04:58:13.930Z,312.88
2019-04-26T04:59:13.930Z,315.73
2019-04-26T05:00:13.913Z,314.79
2019-04-26T05:01:13.904Z,313.38
2019-04-26T05:02:13.878Z,312.62
2019-04-26T05:03:13.880Z,315.44
2019-04-26T05:04:13.895Z,314.11
2019-04-26T05:05:13.858Z,314.36
2019-04-26T05:06:13.873Z,313.64
2019-04-26T05:07:14.550Z,315.18
2019-04-26T05:08:13.818Z,314.07
2019-04-26T05:09:13.828Z,316.25
2019-04-26T05:10:13.800Z,314.96
2019-04-26T05:11:13.806Z,313.65
2019-04-26T05:12:13.783Z,315.75
2019-04-26T05:13:13.793Z,314.83
2019-04-26T05:14:13.769Z,314.90
2019-04-26T05:15:13.747Z,314.67
2019-04-26T05:16:13.724Z,316.10
2019-04-26T05:17:13.725Z,313.97
2019-04-26T05:18:13.703Z,315.54
2019-04-26T05:19:13.722Z,313.35
2019-04-26T05:20:13.691Z,314.87
2019-04-26T05:21:13.669Z,318.65
2019-04-26T05:22:13.707Z,316.94
2019-04-26T05:23:13.661Z,318.89
2019-04-26T05:24:13.658Z,315.70
2019-04-26T05:25:13.629Z,314.92
2019-04-26T05:26:13.623Z,315.99
2019-04-26T05:27:13.620Z,315.11
2019-04-26T05:28:13.601Z,315.53
2019-04-26T05:29:13.613Z,317.39
2019-04-26T05:30:13.583Z,315.62
2019-04-26T05:31:13.567Z,316.12
2019-04-26T05:32:13.559Z,315.98
2019-04-26T05:33:13.594Z,315.75
2019-04-26T05:34:13.547Z,316.08
2019-04-26T05:35:13.539Z,314.89
2019-04-26T05:36:13.517Z,318.98
2019-04-26T05:37:13.492Z,315.32
2019-04-26T05:38:18.509Z,314.80
2019-04-26T05:39:14.501Z,315.65
2019-04-26T05:40:13.471Z,314.51
2019-04-26T05:41:13.447Z,313.54
2019-04-26T05:42:13.448Z,316.33
2019-04-26T05:43:13.435Z,315.78
2019-04-26T05:44:13.449Z,313.89
2019-04-26T05:45:13.418Z,314.95
2019-04-26T05:46:13.394Z,313.23
2019-04-26T05:47:13.381Z,316.36
2019-04-26T05:48:13.384Z,315.69
2019-04-26T05:49:13.368Z,313.91
2019-04-26T05:50:13.367Z,314.13
2019-04-26T05:51:13.351Z,313.69
2019-04-26T05:52:13.696Z,314.58
2019-04-26T05:53:13.323Z,318.26
2019-04-26T05:54:13.333Z,316.07
2019-04-26T05:55:13.317Z,312.98
2019-04-26T05:56:13.301Z,314.91
2019-04-26T05:57:13.281Z,316.80
2019-04-26T05:58:13.280Z,316.10
2019-04-26T05:59:13.262Z,319.40
2019-04-26T06:00:13.277Z,313.87
2019-04-26T06:01:13.234Z,313.46
2019-04-26T06:02:13.218Z,314.44
2019-04-26T06:03:13.216Z,315.32
2019-04-26T06:04:13.200Z,314.57
2019-04-26T06:05:13.198Z,316.12
2019-04-26T06:06:13.181Z,317.11
2019-04-26T06:07:13.174Z,315.89
2019-04-26T06:08:13.171Z,317.09
2019-04-26T06:09:13.159Z,317.39
2019-04-26T06:10:13.162Z,313.52
2019-04-26T06:11:13.128Z,316.40
2019-04-26T06:12:13.103Z,313.40
2019-04-26T06:13:13.105Z,314.00
2019-04-26T06:14:13.136Z,314.85
2019-04-26T06:15:13.098Z,314.80
2019-04-26T06:16:13.066Z,314.45
2019-04-26T06:17:13.052Z,317.18
2019-04-26T06:18:13.056Z,314.18
2019-04-26T06:19:13.036Z,314.10
2019-04-26T06:20:22.674Z,314.76
2019-04-26T06:21:14.024Z,314.97
2019-04-26T06:22:13.010Z,314.28
2019-04-26T06:23:13.010Z,314.73
2019-04-26T06:24:12.976Z,314.61
2019-04-26T06:25:13.009Z,316.33
2019-04-26T06:26:12.956Z,316.25
2019-04-26T06:27:14.295Z,313.75
2019-04-26T06:28:12.969Z,314.31
2019-04-26T06:29:12.942Z,313.20
2019-04-26T06:30:12.948Z,316.11
2019-04-26T06:31:12.944Z,314.34
2019-04-26T06:32:12.968Z,315.04
2019-04-26T06:33:12.871Z,313.51
2019-04-26T06:34:12.869Z,315.94
2019-04-26T06:35:12.885Z,313.88
2019-04-26T06:36:12.930Z,316.07
2019-04-26T06:37:12.852Z,315.07
2019-04-26T06:38:12.841Z,312.46
2019-04-26T06:39:12.812Z,313.69
2019-04-26T06:40:12.826Z,313.20
2019-04-26T06:41:12.795Z,316.42
2019-04-26T06:42:12.771Z,314.67
2019-04-26T06:43:12.765Z,315.41
2019-04-26T06:44:12.758Z,314.28
2019-04-26T06:45:12.763Z,313.18
2019-04-26T06:46:12.736Z,314.63
2019-04-26T06:47:12.712Z,314.83
2019-04-26T06:48:12.754Z,314.49
2019-04-26T06:49:12.694Z,316.01
2019-04-26T06:50:12.710Z,315.74
2019-04-26T06:51:23.800Z,314.26
2019-04-26T06:52:13.664Z,314.31
2019-04-26T06:53:12.648Z,315.31
2019-04-26T06:54:12.677Z,315.53
2019-04-26T06:55:12.642Z,313.88
2019-04-26T06:56:12.617Z,316.59
2019-04-26T06:57:15.161Z,314.38
2019-04-26T06:58:13.066Z,314.90
2019-04-26T06:59:12.588Z,316.12
2019-04-26T07:00:12.612Z,313.63
2019-04-26T07:01:12.623Z,316.98
2019-04-26T07:02:12.569Z,313.03
2019-04-26T07:03:12.546Z,313.84
2019-04-26T07:04:12.741Z,315.08
2019-04-26T07:05:15.206Z,316.13
2019-04-26T07:06:12.534Z,312.90
2019-04-26T07:07:13.417Z,312.30
2019-04-26T07:08:12.757Z,315.78
2019-04-26T07:09:12.487Z,311.81
2019-04-26T07:10:12.461Z,313.68
2019-04-26T07:11:12.471Z,313.50
2019-04-26T07:12:12.462Z,313.49
2019-04-26T07:13:14.797Z,312.48
2019-04-26T07:14:12.423Z,312.73
2019-04-26T07:15:12.414Z,320.21
2019-04-26T07:16:22.399Z,315.40
2019-04-26T07:17:13.389Z,313.98
2019-04-26T07:18:12.871Z,314.86
2019-04-26T07:19:13.318Z,313.35
2019-04-26T07:20:12.393Z,312.47
2019-04-26T07:21:12.364Z,314.77
2019-04-26T07:22:12.334Z,313.49
2019-04-26T07:23:12.658Z,312.62
2019-04-26T07:24:13.349Z,315.29
2019-04-26T07:25:12.308Z,313.04
2019-04-26T07:26:12.309Z,315.17
2019-04-26T07:27:13.117Z,313.31
2019-04-26T07:28:12.508Z,313.47
2019-04-26T07:29:12.260Z,312.45
2019-04-26T07:30:12.396Z,313.34
2019-04-26T07:31:13.074Z,313.19
2019-04-26T07:32:12.227Z,316.90
2019-04-26T07:33:12.632Z,315.50
2019-04-26T07:34:12.199Z,313.71
2019-04-26T07:35:13.028Z,312.38
2019-04-26T07:36:12.202Z,313.44
2019-04-26T07:37:12.164Z,313.18
2019-04-26T07:38:12.151Z,312.23
2019-04-26T07:39:19.483Z,311.66
2019-04-26T07:40:13.134Z,312.51
2019-04-26T07:41:12.162Z,312.10
2019-04-26T07:42:12.117Z,312.71
2019-04-26T07:43:12.536Z,311.50
2019-04-26T07:44:12.092Z,312.07
2019-04-26T07:45:12.379Z,310.85
2019-04-26T07:46:12.689Z,311.50
2019-04-26T07:47:14.326Z,313.37
2019-04-26T07:48:12.065Z,313.44
2019-04-26T07:49:12.541Z,312.18
2019-04-26T07:50:12.034Z,311.66
2019-04-26T07:51:12.024Z,311.08
2019-04-26T07:52:12.670Z,312.48
2019-04-26T07:53:11.982Z,312.03
2019-04-26T07:54:12.975Z,311.16
2019-04-26T07:55:12.866Z,309.99
2019-04-26T07:56:11.992Z,310.62
2019-04-26T07:57:12.840Z,311.54
2019-04-26T07:58:11.925Z,310.69
2019-04-26T07:59:12.852Z,312.08
2019-04-26T08:00:12.949Z,313.40
2019-04-26T08:01:12.019Z,312.72
2019-04-26T08:02:11.886Z,310.88
2019-04-26T08:03:12.815Z,311.76
2019-04-26T08:04:11.864Z,311.29
2019-04-26T08:05:11.868Z,312.31
2019-04-26T08:06:11.857Z,310.52
2019-04-26T08:07:11.832Z,310.52
2019-04-26T08:08:12.794Z,310.75
2019-04-26T08:09:24.776Z,311.39
2019-04-26T08:10:12.826Z,312.06
2019-04-26T08:11:12.871Z,312.67
2019-04-26T08:12:12.204Z,312.60
2019-04-26T08:13:11.774Z,312.20
2019-04-26T08:14:12.549Z,312.64
2019-04-26T08:15:11.736Z,312.23
2019-04-26T08:16:12.399Z,310.73
2019-04-26T08:17:12.555Z,310.05
2019-04-26T08:18:11.716Z,309.33
2019-04-26T08:19:12.606Z,309.73
2019-04-26T08:20:12.918Z,310.13
2019-04-26T08:21:15.805Z,309.93
2019-04-26T08:22:20.392Z,310.65
2019-04-26T08:23:35.111Z,310.30
2019-04-26T08:24:12.638Z,310.18
2019-04-26T08:25:12.451Z,310.12
2019-04-26T08:26:11.658Z,310.95
2019-04-26T08:27:18.736Z,310.27
2019-04-26T08:28:12.617Z,310.57
2019-04-26T08:29:12.622Z,313.52
2019-04-26T08:30:15.563Z,311.16
2019-04-26T08:31:15.484Z,313.04
2019-04-26T08:32:13.272Z,312.94
2019-04-26T08:33:13.163Z,310.55
2019-04-26T08:34:12.346Z,310.88
2019-04-26T08:35:16.840Z,309.97
2019-04-26T08:36:12.760Z,309.42
2019-04-26T08:37:12.586Z,311.17
2019-04-26T08:38:16.422Z,309.77
2019-04-26T08:39:13.028Z,309.21
2019-04-26T08:40:16.328Z,309.17
2019-04-26T08:41:13.432Z,310.19
2019-04-26T08:42:19.228Z,309.80
2019-04-26T08:43:12.455Z,309.79
2019-04-26T08:44:11.460Z,309.31
2019-04-26T08:45:13.757Z,307.90
2019-04-26T08:46:12.967Z,307.51
2019-04-26T08:47:16.782Z,307.82
2019-04-26T08:48:12.391Z,307.55
2019-04-26T08:49:11.386Z,307.68
2019-04-26T08:50:13.682Z,308.13
2019-04-26T08:51:11.363Z,310.54
2019-04-26T08:52:14.579Z,311.44
2019-04-26T08:53:11.330Z,312.18
2019-04-26T08:54:11.334Z,308.83
2019-04-26T08:55:11.321Z,311.20
2019-04-26T08:56:11.619Z,309.52
2019-04-26T08:57:11.296Z,309.25
2019-04-26T08:58:11.283Z,309.08
2019-04-26T08:59:11.286Z,309.95
2019-04-26T09:00:11.254Z,310.28
2019-04-26T09:01:11.258Z,309.90
2019-04-26T09:02:11.229Z,310.68
2019-04-26T09:03:12.056Z,309.35
2019-04-26T09:04:11.220Z,311.53
2019-04-26T09:05:11.216Z,312.80
2019-04-26T09:06:11.248Z,313.57
2019-04-26T09:07:11.177Z,313.29
2019-04-26T09:08:11.170Z,311.99
2019-04-26T09:09:14.335Z,311.04
2019-04-26T09:10:12.152Z,310.15
2019-04-26T09:11:23.661Z,309.86
2019-04-26T09:12:22.559Z,310.77
2019-04-26T09:13:12.108Z,311.72
2019-04-26T09:14:11.106Z,311.34
2019-04-26T09:15:11.111Z,310.36
2019-04-26T09:16:11.211Z,310.30
2019-04-26T09:17:11.124Z,309.45
2019-04-26T09:18:11.064Z,310.23
2019-04-26T09:19:11.048Z,310.50
2019-04-26T09:20:11.041Z,310.50
2019-04-26T09:21:13.250Z,312.16
2019-04-26T09:22:13.119Z,311.73
2019-04-26T09:23:11.005Z,311.53
2019-04-26T09:24:10.982Z,311.40
2019-04-26T09:25:10.976Z,310.64
2019-04-26T09:26:12.555Z,310.38
2019-04-26T09:27:10.965Z,310.70
2019-04-26T09:28:10.953Z,311.33
2019-04-26T09:29:10.950Z,312.47
2019-04-26T09:30:10.918Z,312.05
2019-04-26T09:31:10.930Z,311.59
2019-04-26T09:32:10.906Z,310.31
2019-04-26T09:33:10.967Z,311.57
2019-04-26T09:34:11.472Z,309.68
2019-04-26T09:35:11.330Z,310.13
2019-04-26T09:36:10.873Z,310.66
2019-04-26T09:37:10.849Z,311.74
2019-04-26T09:38:10.841Z,314.46
2019-04-26T09:39:10.831Z,312.26
2019-04-26T09:40:10.990Z,311.88
2019-04-26T09:41:10.832Z,310.10
2019-04-26T09:42:10.786Z,310.36
2019-04-26T09:43:15.151Z,309.31
2019-04-26T09:44:11.772Z,309.92
2019-04-26T09:45:10.764Z,309.20
2019-04-26T09:46:10.781Z,309.77
2019-04-26T09:47:10.744Z,309.19
2019-04-26T09:48:10.727Z,310.67
2019-04-26T09:49:10.711Z,309.69
2019-04-26T09:50:11.229Z,309.19
2019-04-26T09:51:10.716Z,310.11
2019-04-26T09:52:10.741Z,310.25
2019-04-26T09:53:10.663Z,309.19
2019-04-26T09:54:10.666Z,309.02
2019-04-26T09:55:10.653Z,308.74
2019-04-26T09:56:10.676Z,309.72
2019-04-26T09:57:10.661Z,310.20
2019-04-26T09:58:10.635Z,310.23
2019-04-26T09:59:10.609Z,310.22
2019-04-26T10:00:14.314Z,311.30
2019-04-26T10:01:10.607Z,310.49
2019-04-26T10:02:10.579Z,309.80
2019-04-26T10:03:10.789Z,310.16
2019-04-26T10:04:10.631Z,309.44
2019-04-26T10:05:12.067Z,308.26
2019-04-26T10:06:10.543Z,308.59
2019-04-26T10:07:10.527Z,308.78
2019-04-26T10:08:13.012Z,308.98
2019-04-26T10:09:10.505Z,309.48
2019-04-26T10:10:22.348Z,309.94
2019-04-26T10:11:11.512Z,310.07
2019-04-26T10:12:10.473Z,310.05
2019-04-26T10:13:10.449Z,310.06
2019-04-26T10:14:10.446Z,309.64
2019-04-26T10:15:10.427Z,309.97
2019-04-26T10:16:10.439Z,310.08
2019-04-26T10:17:11.465Z,310.15
2019-04-26T10:18:10.411Z,309.12
2019-04-26T10:19:10.391Z,310.14
2019-04-26T10:20:10.416Z,309.69
2019-04-26T10:21:10.396Z,309.75
2019-04-26T10:22:10.373Z,310.20
2019-04-26T10:23:10.347Z,309.39
2019-04-26T10:24:10.356Z,309.05
2019-04-26T10:25:16.737Z,310.43
2019-04-26T10:26:11.335Z,310.39
2019-04-26T10:27:10.311Z,309.89
2019-04-26T10:28:11.711Z,309.28
2019-04-26T10:29:11.282Z,310.52
2019-04-26T10:30:10.277Z,309.68
2019-04-26T10:31:13.543Z,309.24
2019-04-26T10:32:10.277Z,308.90
2019-04-26T10:33:10.239Z,308.79
2019-04-26T10:34:11.773Z,309.74
2019-04-26T10:35:10.216Z,310.24
2019-04-26T10:36:10.211Z,310.39
2019-04-26T10:37:10.183Z,311.14
2019-04-26T10:38:10.176Z,310.05
2019-04-26T10:39:10.203Z,310.18
2019-04-26T10:40:10.161Z,310.02
2019-04-26T10:41:10.170Z,310.29
2019-04-26T10:42:10.138Z,310.60
2019-04-26T10:43:10.144Z,309.97
2019-04-26T10:44:10.125Z,309.19
2019-04-26T10:45:10.476Z,309.38
2019-04-26T10:46:10.106Z,308.79
2019-04-26T10:47:10.072Z,309.69
2019-04-26T10:48:14.079Z,309.34
2019-04-26T10:49:12.112Z,309.19
2019-04-26T10:50:10.108Z,309.55
2019-04-26T10:51:10.061Z,310.82
2019-04-26T10:52:11.983Z,308.40
2019-04-26T10:53:11.009Z,309.55
2019-04-26T10:54:10.001Z,310.22
2019-04-26T10:55:12.251Z,310.15
2019-04-26T10:56:10.999Z,310.88
2019-04-26T10:57:09.985Z,308.95
2019-04-26T10:58:09.976Z,309.64
2019-04-26T10:59:10.871Z,309.22
2019-04-26T11:00:09.926Z,307.96
2019-04-26T11:01:09.957Z,309.46
2019-04-26T11:02:09.942Z,308.69
2019-04-26T11:03:09.913Z,309.03
2019-04-26T11:04:09.912Z,308.89
2019-04-26T11:05:11.716Z,309.05
2019-04-26T11:06:10.884Z,308.98
2019-04-26T11:07:09.978Z,308.66
2019-04-26T11:08:09.858Z,306.41
2019-04-26T11:09:09.884Z,306.76
2019-04-26T11:10:09.844Z,308.22
2019-04-26T11:11:09.844Z,307.29
2019-04-26T11:12:09.811Z,308.00
2019-04-26T11:13:09.796Z,308.54
2019-04-26T11:14:09.784Z,307.43
2019-04-26T11:15:09.775Z,308.40
2019-04-26T11:16:09.786Z,308.76
2019-04-26T11:17:11.487Z,309.35
2019-04-26T11:18:10.749Z,309.61
2019-04-26T11:19:09.737Z,308.98
2019-04-26T11:20:10.532Z,310.08
2019-04-26T11:21:09.787Z,311.45
2019-04-26T11:22:09.692Z,310.78
2019-04-26T11:23:11.717Z,309.82
2019-04-26T11:24:09.666Z,310.14
2019-04-26T11:25:09.668Z,309.71
2019-04-26T11:26:09.657Z,309.89
2019-04-26T11:27:11.107Z,310.58
2019-04-26T11:28:09.655Z,309.75
2019-04-26T11:29:09.620Z,308.99
2019-04-26T11:30:12.303Z,309.22
2019-04-26T11:31:10.626Z,308.40
2019-04-26T11:32:09.594Z,309.96
2019-04-26T11:33:11.003Z,309.30
2019-04-26T11:34:09.562Z,308.80
2019-04-26T11:35:09.544Z,308.45
2019-04-26T11:36:09.678Z,308.35
2019-04-26T11:37:09.528Z,308.81
2019-04-26T11:38:09.524Z,308.62
2019-04-26T11:39:09.531Z,309.14
2019-04-26T11:40:10.299Z,307.87
2019-04-26T11:41:09.515Z,309.32
2019-04-26T11:42:11.751Z,309.74
2019-04-26T11:43:09.464Z,309.03
2019-04-26T11:44:09.442Z,308.72
2019-04-26T11:45:10.789Z,309.21
2019-04-26T11:46:10.465Z,308.20
2019-04-26T11:47:09.423Z,309.62
2019-04-26T11:48:09.452Z,309.05
2019-04-26T11:49:09.413Z,308.11
2019-04-26T11:50:12.556Z,308.43
2019-04-26T11:51:10.434Z,307.91
2019-04-26T11:52:09.372Z,312.80
2019-04-26T11:53:10.161Z,307.40
2019-04-26T11:54:09.348Z,309.17
2019-04-26T11:55:09.335Z,306.60
2019-04-26T11:56:09.335Z,306.49
2019-04-26T11:57:12.027Z,302.18
2019-04-26T11:58:09.304Z,307.25
2019-04-26T11:59:09.307Z,308.03
2019-04-26T12:00:09.302Z,307.29
2019-04-26T12:01:09.295Z,308.74
2019-04-26T12:02:12.382Z,306.70
2019-04-26T12:03:10.242Z,299.05
2019-04-26T12:04:09.234Z,306.00
2019-04-26T12:05:09.217Z,305.85
2019-04-26T12:06:09.210Z,305.17
2019-04-26T12:07:09.228Z,306.01
2019-04-26T12:08:09.185Z,305.20
2019-04-26T12:09:09.185Z,305.81
2019-04-26T12:10:09.948Z,307.23
2019-04-26T12:11:18.198Z,306.96
2019-04-26T12:12:13.173Z,307.14
2019-04-26T12:13:09.165Z,308.07
2019-04-26T12:14:19.695Z,306.75
2019-04-26T12:15:10.249Z,309.11
2019-04-26T12:16:09.921Z,308.04
2019-04-26T12:17:09.104Z,306.69
2019-04-26T12:18:09.913Z,309.43
2019-04-26T12:19:09.068Z,309.13
2019-04-26T12:20:09.052Z,307.57
2019-04-26T12:21:09.052Z,305.92
2019-04-26T12:22:09.950Z,306.60
2019-04-26T12:23:09.028Z,307.20
2019-04-26T12:24:09.010Z,307.92
2019-04-26T12:25:09.008Z,300.34
2019-04-26T12:26:08.993Z,303.91
2019-04-26T12:27:10.316Z,301.30
2019-04-26T12:28:09.036Z,300.68
2019-04-26T12:29:10.446Z,300.80
2019-04-26T12:30:09.952Z,306.87
2019-04-26T12:31:08.933Z,299.17